Time;durP1;ratioP1;P1;durP2;ratioP2;P2;SDS_P1;SDS_P2;PMS_P1;PMS_P2;Temp;Humidity;BMP_temperature;BMP_pressure;BME280_temperature;BME280_humidity;BME280_pressure;Samples;Min_cycle;Max_cycle;Signal;HPM_P1;HPM_P2
2022/06/11 00:00:43;;;;;;;5.35;3.38;;;12.20;99.90;;;;;;5096724;28;20032;-94
2022/06/11 00:03:09;;;;;;;7.60;4.00;;;12.10;99.90;;;;;;5079936;28;20107;-93
2022/06/11 00:05:34;;;;;;;10.13;3.92;;;12.10;99.90;;;;;;5079745;28;20024;-93
2022/06/11 00:08:00;;;;;;;5.70;3.40;;;12.10;99.90;;;;;;5097019;28;20417;-94
2022/06/11 00:10:26;;;;;;;5.50;3.30;;;12.00;99.90;;;;;;5097076;28;20112;-94
2022/06/11 00:12:52;;;;;;;4.20;3.45;;;12.00;99.90;;;;;;5079157;28;20043;-93
2022/06/11 00:15:18;;;;;;;8.15;3.70;;;11.90;99.90;;;;;;5079301;28;20043;-93
2022/06/11 00:17:44;;;;;;;7.22;3.78;;;11.90;99.90;;;;;;5096552;28;20036;-93
2022/06/11 00:20:10;;;;;;;7.50;3.80;;;11.80;99.90;;;;;;5079492;28;20039;-92
2022/06/11 00:22:36;;;;;;;8.77;3.70;;;11.80;99.90;;;;;;5096554;28;20028;-93
2022/06/11 00:25:03;;;;;;;5.00;3.30;;;11.90;99.90;;;;;;5079228;28;20111;-94
2022/06/11 00:27:29;;;;;;;7.32;3.10;;;11.90;99.90;;;;;;5096327;28;20141;-93
2022/06/11 00:29:55;;;;;;;5.05;3.30;;;11.90;99.90;;;;;;5079002;28;20043;-93
2022/06/11 00:32:21;;;;;;;7.70;3.38;;;11.90;99.90;;;;;;5079318;28;20028;-92
2022/06/11 00:34:48;;;;;;;6.03;3.30;;;12.00;99.90;;;;;;5095932;28;20081;-95
2022/06/11 00:37:17;;;;;;;12.93;3.53;;;11.90;99.90;;;;;;5095945;28;20028;-93
2022/06/11 00:39:44;;;;;;;9.32;3.88;;;11.90;99.90;;;;;;5078272;28;20020;-94
2022/06/11 00:42:16;;;;;;;5.15;3.33;;;11.80;99.90;;;;;;5079574;28;20028;-94
2022/06/11 00:44:42;;;;;;;6.65;3.55;;;11.70;99.90;;;;;;5095993;28;20368;-93
2022/06/11 00:47:14;;;;;;;6.20;3.60;;;11.70;99.90;;;;;;5096040;28;20025;-94
2022/06/11 00:49:50;;;;;;;4.75;3.65;;;11.60;99.90;;;;;;5097261;28;20039;-94
2022/06/11 00:52:38;;;;;;;6.57;3.88;;;11.50;99.90;;;;;;5096003;28;20229;-94
2022/06/11 00:55:21;;;;;;;8.85;3.88;;;11.40;99.90;;;;;;5095770;28;20043;-94
2022/06/11 00:57:53;;;;;;;5.88;4.40;;;11.40;99.90;;;;;;5079000;28;20076;-93
2022/06/11 01:00:24;;;;;;;6.22;3.83;;;11.40;99.90;;;;;;5096718;28;20452;-94
2022/06/11 01:02:50;;;;;;;8.17;3.90;;;11.40;99.90;;;;;;5095757;28;20024;-93
2022/06/11 01:05:22;;;;;;;9.32;3.88;;;11.40;99.90;;;;;;5078753;28;20161;-93
2022/06/11 01:08:15;;;;;;;6.45;3.38;;;11.40;99.90;;;;;;5096981;28;20020;-93
2022/06/11 01:11:01;;;;;;;8.25;3.45;;;11.40;99.90;;;;;;5078532;28;20834;-93
2022/06/11 01:14:07;;;;;;;8.73;3.78;;;11.50;99.90;;;;;;5095008;28;20032;-93
2022/06/11 01:17:10;;;;;;;5.78;3.33;;;11.40;99.90;;;;;;5078387;28;20028;-93
2022/06/11 01:20:09;;;;;;;7.10;3.85;;;11.40;99.90;;;;;;5094879;28;20024;-92
2022/06/11 01:23:04;;;;;;;6.70;3.90;;;11.40;99.90;;;;;;5078651;28;20040;-92
2022/06/11 01:25:52;;;;;;;7.38;3.90;;;11.40;99.90;;;;;;5095170;28;20090;-94
2022/06/11 01:28:39;;;;;;;6.47;3.70;;;11.30;99.90;;;;;;5096354;28;20123;-93
2022/06/11 01:31:17;;;;;;;7.30;4.03;;;11.30;99.90;;;;;;5095049;28;20028;-92
2022/06/11 01:33:48;;;;;;;5.60;3.40;;;11.20;99.90;;;;;;5077634;28;20541;-93
2022/06/11 01:36:23;;;;;;;;;;;11.20;99.90;;;;;;5078462;28;20036;-93
2022/06/11 01:38:52;;;;;;;5.72;4.10;;;11.20;99.90;;;;;;5094675;28;19974;-93
2022/06/11 01:41:38;;;;;;;7.05;3.90;;;11.20;99.90;;;;;;5078123;28;20019;-94
2022/06/11 01:44:12;;;;;;;5.07;3.92;;;11.20;99.90;;;;;;5094663;28;20078;-94
2022/06/11 01:46:45;;;;;;;9.10;3.47;;;11.10;99.90;;;;;;5077893;28;20060;-92
2022/06/11 01:49:20;;;;;;;8.07;4.00;;;11.10;99.90;;;;;;5094294;28;20040;-93
2022/06/11 01:52:13;;;;;;;6.43;4.43;;;11.10;99.90;;;;;;5094566;28;20110;-92
2022/06/11 01:54:50;;;;;;;6.03;3.92;;;11.10;99.90;;;;;;5094754;28;20487;-93
2022/06/11 01:57:19;;;;;;;7.07;3.83;;;11.10;99.90;;;;;;5077878;28;20487;-93
2022/06/11 02:00:07;;;;;;;10.00;3.75;;;11.00;99.90;;;;;;5077601;28;20028;-92
2022/06/11 02:02:50;;;;;;;7.00;4.20;;;11.00;99.90;;;;;;5094671;28;20028;-93
2022/06/11 02:05:24;;;;;;;5.32;4.00;;;11.00;99.90;;;;;;5094546;28;20022;-92
2022/06/11 02:07:58;;;;;;;6.82;3.80;;;11.00;99.90;;;;;;5077681;28;20055;-93
2022/06/11 02:10:29;;;;;;;6.80;3.45;;;11.00;99.90;;;;;;5094558;28;20077;-93
2022/06/11 02:13:34;;;;;;;9.03;3.77;;;11.00;99.90;;;;;;5094724;28;20059;-93
2022/06/11 02:16:14;;;;;;;7.18;3.75;;;10.90;99.90;;;;;;5077252;28;20492;-93
2022/06/11 02:18:42;;;;;;;11.10;4.27;;;10.90;99.90;;;;;;5094614;28;20032;-93
2022/06/11 02:21:15;;;;;;;7.07;4.30;;;10.80;99.90;;;;;;5077507;28;20430;-94
2022/06/11 02:23:52;;;;;;;9.35;4.78;;;10.80;99.90;;;;;;5077656;28;20085;-93
2022/06/11 02:26:25;;;;;;;9.07;4.20;;;10.80;99.90;;;;;;5077520;28;20403;-93
2022/06/11 02:28:51;;;;;;;10.45;3.95;;;10.80;99.90;;;;;;5077398;28;20054;-94
2022/06/11 02:31:23;;;;;;;5.63;3.67;;;10.90;99.90;;;;;;5077877;28;20028;-93
2022/06/11 02:33:50;;;;;;;10.32;4.38;;;10.90;99.90;;;;;;5077655;28;20036;-94
2022/06/11 02:36:21;;;;;;;6.38;3.80;;;10.80;99.90;;;;;;5095686;28;20031;-93
2022/06/11 02:38:48;;;;;;;12.88;4.10;;;10.80;99.90;;;;;;5094480;28;20081;-93
2022/06/11 02:41:27;;;;;;;13.48;4.32;;;10.80;99.90;;;;;;5094619;28;20038;-94
2022/06/11 02:43:53;;;;;;;8.30;4.25;;;10.80;99.90;;;;;;5077598;28;20094;-94
2022/06/11 02:49:08;;;;;;;8.05;4.28;;;10.80;99.90;;;;;;5094239;28;20048;-94
2022/06/11 02:51:34;;;;;;;7.78;4.07;;;10.80;99.90;;;;;;5094376;28;20370;-94
2022/06/11 02:54:00;;;;;;;5.63;4.03;;;10.80;99.90;;;;;;5077264;28;20036;-93
2022/06/11 02:56:27;;;;;;;10.63;4.10;;;10.80;99.90;;;;;;5094497;28;20055;-94
2022/06/11 02:58:53;;;;;;;8.05;4.03;;;10.80;99.90;;;;;;5094324;28;20039;-94
2022/06/11 03:01:20;;;;;;;7.03;4.07;;;10.80;99.90;;;;;;5094190;28;20036;-92
2022/06/11 03:03:49;;;;;;;8.07;4.13;;;10.80;99.90;;;;;;5097882;28;20080;-92
2022/06/11 03:06:16;;;;;;;8.82;3.97;;;10.80;99.90;;;;;;5098111;28;20032;-93
2022/06/11 03:08:42;;;;;;;13.68;4.68;;;10.80;99.90;;;;;;5098072;28;20487;-94
2022/06/11 03:11:08;;;;;;;6.03;4.28;;;10.80;99.90;;;;;;5081166;28;20127;-94
2022/06/11 03:13:34;;;;;;;5.65;3.58;;;10.80;99.90;;;;;;5081084;28;20078;-94
2022/06/11 03:16:00;;;;;;;6.15;4.53;;;10.70;99.90;;;;;;5081025;28;20035;-94
2022/06/11 03:18:27;;;;;;;11.00;3.58;;;10.70;99.90;;;;;;5097705;28;20476;-88
2022/06/11 03:20:53;;;;;;;5.78;4.00;;;10.80;99.90;;;;;;5095920;28;20024;-88
2022/06/11 03:23:19;;;;;;;7.60;4.43;;;10.90;99.90;;;;;;5095604;28;20417;-88
2022/06/11 03:25:46;;;;;;;10.13;3.72;;;10.90;99.90;;;;;;5095967;28;20557;-88
2022/06/11 03:28:19;;;;;;;6.55;3.67;;;10.90;99.90;;;;;;5078404;28;20035;-88
2022/06/11 03:30:45;;;;;;;11.80;3.75;;;10.90;99.90;;;;;;5095704;28;20067;-88
2022/06/11 03:33:12;;;;;;;6.03;3.90;;;10.90;99.90;;;;;;5078233;28;20146;-88
2022/06/11 03:35:38;;;;;;;5.85;3.85;;;11.00;99.90;;;;;;5095599;28;20028;-88
2022/06/11 03:38:07;;;;;;;9.25;3.90;;;11.00;99.90;;;;;;5096582;28;20020;-88
2022/06/11 03:40:33;;;;;;;5.28;3.40;;;11.10;99.90;;;;;;5095542;28;20036;-88
2022/06/11 03:42:59;;;;;;;11.77;4.25;;;11.20;99.90;;;;;;5078202;28;20020;-88
2022/06/11 03:45:25;;;;;;;7.30;3.83;;;11.20;99.90;;;;;;5096015;28;20032;-88
2022/06/11 03:47:51;;;;;;;10.48;3.63;;;11.20;99.90;;;;;;5078980;28;20036;-88
2022/06/11 03:50:31;;;;;;;5.10;3.90;;;11.20;99.90;;;;;;5078800;28;20475;-88
2022/06/11 03:52:58;;;;;;;6.23;3.40;;;11.30;99.90;;;;;;5095607;28;20107;-88
2022/06/11 03:55:25;;;;;;;8.60;4.20;;;11.40;99.90;;;;;;5095669;28;20424;-88
2022/06/11 03:57:51;;;;;;;5.68;3.45;;;11.50;99.90;;;;;;5096733;28;20032;-88
2022/06/11 04:01:14;;;;;;;5.68;3.13;;;11.60;99.90;;;;;;5095594;28;20036;-88
2022/06/11 04:03:06;;;;;;;6.40;3.35;;;11.60;99.90;;;;;;5095249;28;20032;-88
2022/06/11 04:05:33;;;;;;;6.38;3.20;;;11.70;99.90;;;;;;5095206;28;20103;-88
2022/06/11 04:07:59;;;;;;;6.60;3.60;;;11.80;99.90;;;;;;5078862;28;20032;-88
2022/06/11 04:10:25;;;;;;;8.35;3.95;;;11.80;99.90;;;;;;5078528;28;20024;-88
2022/06/11 04:12:52;;;;;;;7.28;3.40;;;11.90;99.90;;;;;;5078559;28;20032;-88
2022/06/11 04:15:18;;;;;;;3.95;3.10;;;12.00;99.90;;;;;;5095234;28;20498;-88
2022/06/11 04:17:44;;;;;;;8.20;3.90;;;12.20;99.90;;;;;;5094774;28;20053;-88
2022/06/11 04:20:13;;;;;;;4.00;3.10;;;12.40;99.90;;;;;;5077893;28;20106;-88
2022/06/11 04:22:39;;;;;;;7.60;3.67;;;12.50;99.90;;;;;;5078080;28;20032;-88
2022/06/11 04:25:05;;;;;;;7.00;3.33;;;12.70;99.90;;;;;;5077845;28;20115;-88
2022/06/11 04:27:34;;;;;;;6.32;3.10;;;12.80;99.90;;;;;;5094710;28;20440;-88
2022/06/11 04:30:00;;;;;;;6.95;3.45;;;13.00;99.90;;;;;;5077603;28;20051;-88
2022/06/11 04:32:27;;;;;;;7.88;3.22;;;13.10;99.90;;;;;;5076875;28;20077;-88
2022/06/11 04:34:54;;;;;;;9.95;3.75;;;13.20;99.90;;;;;;5094455;28;20467;-88
2022/06/11 04:37:23;;;;;;;6.10;2.72;;;13.30;99.90;;;;;;5093649;28;20479;-88
2022/06/11 04:39:51;;;;;;;10.73;4.00;;;13.40;99.90;;;;;;5093409;28;20032;-88
2022/06/11 04:42:18;;;;;;;7.28;3.67;;;13.50;99.90;;;;;;5077052;28;20739;-88
2022/06/11 04:45:34;;;;;;;12.05;3.33;;;13.50;99.90;;;;;;5076813;28;20028;-88
2022/06/11 04:48:00;;;;;;;4.65;3.10;;;13.60;99.90;;;;;;5076958;28;20024;-88
2022/06/11 04:50:26;;;;;;;10.07;3.97;;;13.70;99.90;;;;;;5076866;28;20490;-88
2022/06/11 04:52:52;;;;;;;7.20;3.05;;;13.90;99.90;;;;;;5093756;28;20072;-88
2022/06/11 04:55:18;;;;;;;6.38;3.22;;;14.20;99.90;;;;;;5076572;28;20035;-88
2022/06/11 04:57:44;;;;;;;5.38;2.72;;;14.50;99.90;;;;;;5077001;28;20032;-87
2022/06/11 05:00:19;;;;;;;17.50;3.40;;;14.90;99.90;;;;;;5076290;28;20028;-88
2022/06/11 05:02:46;;;;;;;6.60;2.70;;;15.30;99.90;;;;;;5093408;28;20032;-88
2022/06/11 05:05:13;;;;;;;6.18;2.75;;;15.60;99.90;;;;;;5094168;28;20468;-88
2022/06/11 05:07:40;;;;;;;10.10;3.08;;;15.90;99.90;;;;;;5092510;28;20038;-88
2022/06/11 05:10:07;;;;;;;4.80;2.80;;;16.20;99.90;;;;;;5093137;28;20534;-88
2022/06/11 05:12:32;;;;;;;7.28;3.33;;;16.40;99.90;;;;;;5076421;28;20032;-88
2022/06/11 05:14:58;;;;;;;5.97;2.88;;;16.60;99.90;;;;;;5093094;28;20038;-88
2022/06/11 05:17:24;;;;;;;5.10;2.95;;;16.90;99.90;;;;;;5094630;28;20115;-88
2022/06/11 05:19:49;;;;;;;5.82;2.95;;;17.20;99.90;;;;;;5094041;28;20079;-88
2022/06/11 05:22:15;;;;;;;7.22;2.72;;;17.50;99.90;;;;;;5076145;28;20043;-88
2022/06/11 05:24:41;;;;;;;5.28;2.60;;;17.80;99.90;;;;;;5075364;28;20021;-88
2022/06/11 05:27:14;;;;;;;5.18;2.75;;;18.10;99.90;;;;;;5092235;28;20024;-88
2022/06/11 05:29:56;;;;;;;6.30;3.20;;;18.40;99.90;;;;;;5075702;28;20073;-88
2022/06/11 05:32:29;;;;;;;15.25;6.35;;;18.80;99.90;;;;;;5075274;28;20064;-88
2022/06/11 05:34:59;;;;;;;7.45;4.47;;;19.10;99.90;;;;;;5092467;28;20032;-88
2022/06/11 05:37:25;;;;;;;7.85;3.45;;;19.30;99.90;;;;;;5092588;28;20119;-88
2022/06/11 05:39:52;;;;;;;6.25;2.30;;;19.50;99.90;;;;;;5092102;28;20509;-87
2022/06/11 05:42:20;;;;;;;6.55;2.38;;;19.70;99.90;;;;;;5075267;28;20028;-88
2022/06/11 05:44:47;;;;;;;5.35;2.42;;;19.80;99.90;;;;;;5075328;28;20052;-88
2022/06/11 05:47:17;;;;;;;5.03;2.17;;;19.90;99.90;;;;;;5093858;28;20031;-88
2022/06/11 05:49:45;;;;;;;9.30;2.53;;;19.80;99.90;;;;;;5075320;28;20031;-88
2022/06/11 05:52:16;;;;;;;5.93;2.40;;;19.70;99.90;;;;;;5074959;28;20036;-88
2022/06/11 05:54:43;;;;;;;9.57;2.50;;;19.40;99.90;;;;;;5074352;28;20032;-88
2022/06/11 05:57:13;;;;;;;6.45;2.10;;;19.30;99.90;;;;;;5089457;28;20032;-88
2022/06/11 05:59:44;;;;;;;6.93;2.40;;;19.10;99.90;;;;;;5091890;28;20032;-88
2022/06/11 06:02:12;;;;;;;4.60;2.35;;;18.90;99.90;;;;;;5075360;28;20032;-88
2022/06/11 06:04:38;;;;;;;5.22;2.40;;;18.70;99.90;;;;;;5074737;28;20059;-87
2022/06/11 06:07:06;;;;;;;10.38;2.55;;;18.70;99.90;;;;;;5091804;28;20028;-87
2022/06/11 06:09:32;;;;;;;7.20;2.45;;;18.70;99.90;;;;;;5074472;28;20122;-88
2022/06/11 06:11:58;;;;;;;8.32;2.00;;;18.70;99.90;;;;;;5075003;28;20507;-87
2022/06/11 06:14:24;;;;;;;6.93;2.35;;;18.70;99.90;;;;;;5074795;28;20135;-87
2022/06/11 06:16:49;;;;;;;7.38;2.35;;;18.80;99.90;;;;;;5075010;28;20084;-87
2022/06/11 06:19:15;;;;;;;4.75;2.60;;;18.80;99.90;;;;;;5108355;28;20032;-86
2022/06/11 06:21:41;;;;;;;6.85;2.33;;;18.80;99.90;;;;;;5091914;28;20043;-86
2022/06/11 06:24:07;;;;;;;8.20;3.20;;;18.80;99.90;;;;;;5074449;28;20024;-86
2022/06/11 06:26:33;;;;;;;9.52;2.38;;;18.80;99.90;;;;;;5075004;28;20027;-88
2022/06/11 06:28:59;;;;;;;9.40;2.85;;;18.80;99.90;;;;;;5091540;28;20433;-87
2022/06/11 06:31:25;;;;;;;8.70;2.80;;;18.80;99.90;;;;;;5074923;28;20024;-87
2022/06/11 06:33:51;;;;;;;8.32;2.90;;;18.90;99.90;;;;;;5074730;28;20117;-87
2022/06/11 06:36:31;;;;;;;8.95;2.50;;;19.00;99.90;;;;;;5073677;28;20040;-87
2022/06/11 06:38:57;;;;;;;7.18;1.92;;;19.00;99.90;;;;;;5074596;28;20039;-89
2022/06/11 06:41:24;;;;;;;8.82;3.42;;;19.10;99.90;;;;;;5075771;28;20027;-87
2022/06/11 06:43:50;;;;;;;9.40;2.60;;;19.10;99.90;;;;;;5092758;28;20024;-88
2022/06/11 06:46:17;;;;;;;8.63;2.70;;;19.20;99.90;;;;;;5093441;28;20028;-87
2022/06/11 06:49:17;;;;;;;9.15;2.00;;;19.20;99.90;;;;;;5075133;28;20031;-86
2022/06/11 06:51:43;;;;;;;9.50;2.20;;;19.30;99.90;;;;;;5090925;28;20047;-87
2022/06/11 06:54:09;;;;;;;6.97;2.17;;;19.40;99.90;;;;;;5070725;28;20499;-87
2022/06/11 06:56:35;;;;;;;5.93;2.05;;;19.50;99.90;;;;;;5074775;28;20032;-88
2022/06/11 06:59:02;;;;;;;6.35;2.20;;;19.50;99.90;;;;;;5091808;28;20493;-88
2022/06/11 07:01:28;;;;;;;5.40;1.98;;;19.70;99.90;;;;;;5074003;28;20513;-88
2022/06/11 07:03:55;;;;;;;5.60;2.10;;;19.70;99.90;;;;;;5090190;28;20119;-87
2022/06/11 07:06:21;;;;;;;8.95;2.70;;;19.80;99.90;;;;;;5074320;28;20032;-87
2022/06/11 07:08:50;;;;;;;6.40;2.08;;;19.80;99.90;;;;;;5092185;28;20039;-87
2022/06/11 07:11:15;;;;;;;4.40;1.98;;;20.10;99.90;;;;;;5090383;28;20032;-87
2022/06/11 07:13:41;;;;;;;7.63;2.28;;;20.70;99.90;;;;;;5074509;28;20021;-87
2022/06/11 07:19:35;;;;;;;6.90;2.10;;;23.80;99.90;;;;;;5093016;28;20032;-88
2022/06/11 07:22:14;;;;;;;10.60;3.33;;;25.30;99.90;;;;;;5075002;28;20496;-89
2022/06/11 07:24:41;;;;;;;12.65;1.75;;;26.30;99.50;;;;;;5091621;28;20121;-89
2022/06/11 07:27:12;;;;;;;5.13;1.80;;;26.70;96.50;;;;;;5091192;28;20020;-87
2022/06/11 07:29:43;;;;;;;4.97;1.55;;;27.20;92.80;;;;;;5074693;28;20486;-87
2022/06/11 07:32:45;;;;;;;8.07;1.95;;;27.40;90.30;;;;;;5074027;28;20047;-88
2022/06/11 07:35:13;;;;;;;4.10;1.50;;;27.50;89.10;;;;;;5074382;28;20483;-88
2022/06/11 07:37:57;;;;;;;5.97;1.85;;;27.40;84.50;;;;;;5074634;28;20475;-91
2022/06/11 07:40:24;;;;;;;6.15;1.92;;;26.80;83.70;;;;;;5074639;28;20095;-89
2022/06/11 07:42:50;;;;;;;4.28;1.70;;;25.40;86.60;;;;;;5074699;28;20024;-89
2022/06/11 07:45:16;;;;;;;7.55;1.80;;;24.00;90.10;;;;;;5074445;28;20035;-88
2022/06/11 07:47:54;;;;;;;7.45;2.10;;;22.90;92.50;;;;;;5075158;28;20379;-88
2022/06/11 07:50:23;;;;;;;7.13;1.90;;;22.10;94.30;;;;;;5095239;28;20028;-86
2022/06/11 07:52:50;;;;;;;6.35;2.22;;;21.60;95.90;;;;;;5077939;28;20081;-88
2022/06/11 07:55:16;;;;;;;10.15;2.20;;;21.30;97.50;;;;;;5076952;28;20036;-88
2022/06/11 07:57:41;;;;;;;4.47;1.95;;;21.30;98.60;;;;;;5095024;28;20036;-88
2022/06/11 08:00:11;;;;;;;4.75;1.73;;;22.70;98.90;;;;;;5078081;28;20077;-88
2022/06/11 08:02:39;;;;;;;7.53;1.75;;;24.60;94.60;;;;;;5096524;28;20036;-87
2022/06/11 08:05:06;;;;;;;12.10;2.33;;;26.30;92.10;;;;;;5094746;28;20036;-89
2022/06/11 08:07:32;;;;;;;4.30;1.55;;;27.70;89.20;;;;;;5094691;28;20031;-87
2022/06/11 08:09:58;;;;;;;5.60;1.85;;;28.20;83.00;;;;;;5073211;28;20036;-89
2022/06/11 08:12:25;;;;;;;5.53;1.55;;;28.70;79.10;;;;;;5094698;28;20412;-88
2022/06/11 08:14:56;;;;;;;6.53;1.90;;;28.40;80.10;;;;;;5094095;28;20036;-88
2022/06/11 08:17:24;;;;;;;113.65;25.77;;;28.60;78.50;;;;;;5078006;28;20039;-88
2022/06/11 08:19:56;;;;;;;10.88;1.85;;;28.40;76.90;;;;;;5095001;28;20064;-88
2022/06/11 08:22:34;;;;;;;5.97;1.95;;;28.80;73.30;;;;;;5076808;28;20079;-88
2022/06/11 08:25:01;;;;;;;23.20;5.22;;;29.50;72.90;;;;;;5077478;28;20089;-88
2022/06/11 08:27:27;;;;;;;19.05;5.13;;;29.90;70.00;;;;;;5077731;28;20493;-88
2022/06/11 08:29:53;;;;;;;12.02;2.97;;;29.80;68.80;;;;;;5094472;28;20032;-88
2022/06/11 08:32:18;;;;;;;2.95;1.45;;;29.60;67.60;;;;;;5093867;28;20673;-87
2022/06/11 08:34:46;;;;;;;5.32;1.63;;;29.70;69.30;;;;;;5095211;28;20086;-88
2022/06/11 08:37:13;;;;;;;8.65;2.35;;;29.60;67.50;;;;;;5094406;28;20027;-88
2022/06/11 08:39:39;;;;;;;5.65;1.60;;;29.80;65.40;;;;;;5077455;28;20676;-88
2022/06/11 08:42:07;;;;;;;11.32;3.97;;;30.10;64.70;;;;;;5093939;28;20024;-88
2022/06/11 08:44:37;;;;;;;2.55;1.27;;;29.90;66.30;;;;;;5094011;28;20035;-88
2022/06/11 08:47:12;;;;;;;4.65;1.42;;;29.60;66.20;;;;;;5077106;28;20078;-87
2022/06/11 08:49:44;;;;;;;5.82;1.63;;;30.20;64.80;;;;;;5094153;28;20032;-88
2022/06/11 08:52:15;;;;;;;7.82;1.85;;;31.00;66.10;;;;;;5077216;28;20077;-90
2022/06/11 08:54:43;;;;;;;3.50;1.60;;;30.70;63.40;;;;;;5095211;28;20912;-88
2022/06/11 08:57:23;;;;;;;4.47;2.08;;;30.30;63.20;;;;;;5092391;28;20660;-88
2022/06/11 09:00:15;;;;;;;4.77;1.67;;;30.40;62.40;;;;;;5093439;28;20036;-88
2022/06/11 09:02:59;;;;;;;5.47;1.17;;;30.20;62.50;;;;;;5076130;28;20046;-88
2022/06/11 09:05:39;;;;;;;9.25;2.00;;;29.70;63.10;;;;;;5075793;28;20035;-89
2022/06/11 09:08:23;;;;;;;5.88;1.40;;;29.60;64.00;;;;;;5075797;28;20039;-87
2022/06/11 09:11:13;;;;;;;3.17;1.20;;;29.30;64.70;;;;;;5085999;28;20047;-89
2022/06/11 09:14:11;;;;;;;4.90;1.23;;;29.40;62.00;;;;;;5077383;28;20081;-88
2022/06/11 09:17:18;;;;;;;3.33;1.05;;;29.40;61.80;;;;;;5075494;28;20085;-90
2022/06/11 09:19:58;;;;;;;2.53;1.40;;;29.70;63.40;;;;;;5075930;28;20119;-88
2022/06/11 09:22:46;;;;;;;6.72;1.25;;;28.50;63.20;;;;;;5092733;28;20036;-88
2022/06/11 09:25:48;;;;;;;6.03;1.77;;;27.20;67.10;;;;;;5093118;28;20028;-89
2022/06/11 09:28:34;;;;;;;5.07;1.50;;;25.10;70.10;;;;;;5076717;28;20379;-89
2022/06/11 09:31:17;;;;;;;5.28;1.63;;;24.00;72.50;;;;;;5062417;28;20074;-87
2022/06/11 09:34:10;;;;;;;4.22;1.13;;;23.70;73.40;;;;;;5076347;28;20034;-88
2022/06/11 09:36:40;;;;;;;8.05;1.90;;;24.20;78.50;;;;;;5067623;28;20032;-87
2022/06/11 09:39:09;;;;;;;7.00;1.40;;;26.10;73.70;;;;;;5075725;28;20036;-88
2022/06/11 09:41:59;;;;;;;5.30;1.45;;;27.10;70.60;;;;;;5074985;28;20039;-88
2022/06/11 09:44:47;;;;;;;5.13;1.30;;;28.80;69.20;;;;;;5075315;28;20475;-87
2022/06/11 09:47:48;;;;;;;3.75;1.60;;;30.70;63.20;;;;;;5092410;28;20028;-86
2022/06/11 09:50:39;;;;;;;7.32;1.40;;;32.20;63.10;;;;;;5092219;28;20114;-87
2022/06/11 09:53:45;;;;;;;3.00;1.40;;;33.10;59.70;;;;;;5087930;28;20039;-89
2022/06/11 09:56:37;;;;;;;3.28;1.45;;;33.50;61.20;;;;;;5092329;28;20036;-88
2022/06/11 09:59:22;;;;;;;4.20;1.23;;;33.50;59.20;;;;;;5075297;28;20043;-88
2022/06/11 10:02:10;;;;;;;4.13;1.70;;;34.10;59.30;;;;;;5075690;28;20372;-89
2022/06/11 10:04:58;;;;;;;4.78;1.65;;;34.40;57.40;;;;;;5079014;28;20492;-89
2022/06/11 10:07:39;;;;;;;4.78;1.40;;;33.60;58.10;;;;;;5075691;28;20043;-90
2022/06/11 10:10:24;;;;;;;5.30;1.30;;;33.70;57.00;;;;;;5075617;28;20111;-88
2022/06/11 10:13:14;;;;;;;2.42;1.52;;;33.40;55.60;;;;;;5074750;28;20036;-90
2022/06/11 10:15:42;;;;;;;4.13;1.70;;;31.50;58.80;;;;;;5078060;28;20101;-88
2022/06/11 10:18:30;;;;;;;6.75;2.30;;;30.60;62.20;;;;;;5091792;28;20084;-88
2022/06/11 10:21:11;;;;;;;4.70;2.30;;;28.70;62.60;;;;;;5075225;28;20043;-88
2022/06/11 10:23:51;;;;;;;5.22;1.50;;;27.10;67.60;;;;;;5075260;28;20080;-87
2022/06/11 10:26:22;;;;;;;9.23;2.10;;;26.00;71.40;;;;;;5075164;28;20035;-86
2022/06/11 10:29:11;;;;;;;5.80;1.70;;;25.40;73.00;;;;;;5092519;28;20093;-87
2022/06/11 10:31:38;;;;;;;3.60;1.73;;;25.20;72.90;;;;;;5094297;28;20111;-88
2022/06/11 10:34:10;;;;;;;5.35;1.98;;;24.60;74.20;;;;;;5075526;28;20382;-86
2022/06/11 10:36:46;;;;;;;3.58;1.67;;;24.10;75.40;;;;;;5073542;28;20123;-88
2022/06/11 10:39:26;;;;;;;6.07;1.83;;;24.40;76.10;;;;;;5092118;28;20032;-88
2022/06/11 10:42:11;;;;;;;4.15;1.65;;;24.80;75.50;;;;;;5074511;28;20035;-88
2022/06/11 10:44:57;;;;;;;7.97;2.10;;;25.10;76.00;;;;;;5075020;28;20024;-87
2022/06/11 10:47:34;;;;;;;6.95;2.30;;;25.40;74.20;;;;;;5092812;28;20027;-88
2022/06/11 10:50:09;;;;;;;4.63;2.30;;;26.20;73.60;;;;;;5074985;28;20032;-88
2022/06/11 10:52:34;;;;;;;8.52;2.00;;;26.70;71.80;;;;;;5091436;28;20032;-87
2022/06/11 10:55:00;;;;;;;7.20;1.67;;;26.30;73.40;;;;;;5092817;28;20027;-88
2022/06/11 10:57:29;;;;;;;5.20;1.80;;;26.40;73.20;;;;;;5074978;28;20386;-87
2022/06/11 11:00:04;;;;;;;3.83;1.70;;;25.80;73.70;;;;;;5091619;28;20120;-87
2022/06/11 11:02:38;;;;;;;6.28;2.00;;;25.20;74.60;;;;;;5091145;28;20032;-88
2022/06/11 11:05:11;;;;;;;3.22;1.60;;;25.40;76.20;;;;;;5074780;28;20035;-88
2022/06/11 11:07:50;;;;;;;5.32;1.50;;;26.10;76.30;;;;;;5091891;28;20535;-88
2022/06/11 11:10:19;;;;;;;4.93;2.30;;;27.40;70.40;;;;;;5092122;28;20081;-89
2022/06/11 11:12:45;;;;;;;5.18;1.70;;;28.60;69.80;;;;;;5092432;28;20487;-87
2022/06/11 11:15:18;;;;;;;6.82;1.70;;;29.10;69.50;;;;;;5091709;28;20035;-87
2022/06/11 11:17:48;;;;;;;6.45;1.80;;;29.40;67.70;;;;;;5074811;28;20089;-88
2022/06/11 11:20:29;;;;;;;5.28;1.70;;;29.40;66.00;;;;;;5075720;28;20028;-90
2022/06/11 11:23:00;;;;;;;3.60;1.73;;;29.60;66.50;;;;;;5092358;28;20126;-90
2022/06/11 11:25:38;;;;;;;8.93;2.05;;;29.00;63.60;;;;;;5095870;28;20071;-91
2022/06/11 11:28:06;;;;;;;8.00;1.65;;;29.50;64.10;;;;;;5096201;28;20024;-88
2022/06/11 11:34:28;;;;;;;2.42;1.60;;;29.70;63.70;;;;;;5094608;28;20089;-87
2022/06/11 11:37:19;;;;;;;3.92;1.60;;;29.20;66.50;;;;;;5093946;28;20075;-86
2022/06/11 11:39:56;;;;;;;4.65;1.75;;;29.20;68.20;;;;;;5076410;28;20028;-87
2022/06/11 11:42:38;;;;;;;4.28;1.67;;;29.30;66.40;;;;;;5095422;28;20473;-87
2022/06/11 11:45:21;;;;;;;3.85;1.55;;;28.70;65.80;;;;;;5094195;28;20057;-87
2022/06/11 11:47:48;;;;;;;3.42;1.58;;;28.50;70.00;;;;;;5096246;28;20024;-86
2022/06/11 11:50:14;;;;;;;4.15;1.48;;;28.40;66.20;;;;;;5077326;28;20032;-86
2022/06/11 11:52:53;;;;;;;3.17;1.40;;;28.60;66.50;;;;;;5094073;28;20498;-88
2022/06/11 11:55:42;;;;;;;4.90;1.60;;;28.90;67.00;;;;;;5094575;28;20028;-87
2022/06/11 11:58:16;;;;;;;6.25;1.77;;;27.80;67.10;;;;;;5077496;28;20031;-87
2022/06/11 12:00:54;;;;;;;6.28;1.95;;;27.00;70.10;;;;;;5094552;28;20036;-87
2022/06/11 12:03:34;;;;;;;3.35;1.65;;;26.90;69.40;;;;;;5094468;28;20118;-87
2022/06/11 12:06:01;;;;;;;7.23;1.60;;;27.50;69.90;;;;;;5077216;28;20110;-87
2022/06/11 12:08:42;;;;;;;6.57;1.42;;;27.10;68.30;;;;;;5077664;28;20032;-87
2022/06/11 12:11:28;;;;;;;4.00;1.67;;;26.70;70.10;;;;;;5093176;28;20040;-87
2022/06/11 12:14:29;;;;;;;7.03;1.80;;;26.40;70.70;;;;;;5094686;28;20134;-86
2022/06/11 12:17:35;;;;;;;8.05;2.20;;;26.40;72.10;;;;;;5063941;28;20044;-87
2022/06/11 12:20:07;;;;;;;7.40;1.50;;;26.90;74.60;;;;;;5095659;28;20043;-87
2022/06/11 12:23:05;;;;;;;13.35;2.90;;;28.00;70.20;;;;;;5077227;28;20407;-87
2022/06/11 12:25:45;;;;;;;2.72;1.40;;;29.20;69.00;;;;;;5050400;28;20039;-87
2022/06/11 12:28:14;;;;;;;7.05;2.05;;;30.10;65.80;;;;;;5077319;28;20534;-86
2022/06/11 12:30:40;;;;;;;1.98;1.30;;;30.50;66.10;;;;;;5076629;28;20038;-87
2022/06/11 12:33:13;;;;;;;4.28;1.58;;;31.20;63.40;;;;;;5094094;28;20077;-87
2022/06/11 12:36:03;;;;;;;7.38;1.63;;;31.50;61.50;;;;;;5072233;28;20028;-87
2022/06/11 12:38:46;;;;;;;11.13;5.25;;;32.20;63.30;;;;;;5077302;28;20043;-87
2022/06/11 12:41:32;;;;;;;14.60;7.97;;;31.40;60.00;;;;;;5076879;28;20552;-87
2022/06/11 12:44:24;;;;;;;26.38;16.25;;;29.60;61.90;;;;;;5093737;28;20028;-87
2022/06/11 12:47:06;;;;;;;4.45;1.75;;;28.20;65.70;;;;;;5090479;28;20062;-87
2022/06/11 12:49:39;;;;;;;20.42;9.60;;;27.90;63.90;;;;;;5094009;28;20024;-87
2022/06/11 12:52:37;;;;;;;42.95;21.13;;;29.10;65.90;;;;;;5094096;28;20081;-87
2022/06/11 12:55:22;;;;;;;7.05;3.22;;;30.90;63.50;;;;;;5093135;28;20035;-88
2022/06/11 12:58:20;;;;;;;7.65;1.83;;;31.80;59.90;;;;;;5076866;28;20134;-87
2022/06/11 13:01:16;;;;;;;2.95;2.05;;;31.50;62.80;;;;;;5079104;28;20047;-87
2022/06/11 13:04:17;;;;;;;3.67;2.13;;;30.70;63.30;;;;;;5062333;28;20086;-88
2022/06/11 13:07:17;;;;;;;3.83;1.55;;;30.60;62.50;;;;;;5093030;28;20127;-87
2022/06/11 13:17:18;;;;;;;5.72;2.17;;;31.00;61.80;;;;;;5094712;28;20262;-87
2022/06/11 13:19:49;;;;;;;4.97;1.40;;;31.50;60.30;;;;;;5094616;28;20073;-87
2022/06/11 13:22:31;;;;;;;;;;;31.60;59.20;;;;;;5093663;28;20119;-87
2022/06/11 13:25:28;;;;;;;2.72;1.63;;;32.20;58.40;;;;;;5092883;28;19912;-87
2022/06/11 13:28:02;;;;;;;4.65;1.58;;;32.40;58.20;;;;;;5094633;28;20051;-88
2022/06/11 13:30:47;;;;;;;2.83;1.60;;;30.90;58.90;;;;;;5076667;28;20036;-87
2022/06/11 13:33:25;;;;;;;3.83;1.50;;;29.10;60.80;;;;;;5092664;28;20028;-88
2022/06/11 13:36:10;;;;;;;4.53;1.70;;;29.10;63.10;;;;;;5094446;28;20038;-88
2022/06/11 13:39:16;;;;;;;3.17;1.52;;;29.10;62.70;;;;;;5090827;28;20032;-88